Cleveland, Ohio
Current Conditions -  °F | °C
As of 12:53 AM on Wednesday 28 Jan 2015 (Local Time) from KBKL Reporting Station
Clear Clear  
Wind Chill:   Ceiling: Unl
Heat Index: 13°   Visibility: 10mi
Dew Point: 10°   Wind: 5mph
Humidity: 88%   Direction: 260°W
Pressure: 30.19"   Gusts: NA
Location:  41.5°N, 81.69°W
Report Text: KBKL 280553Z 26004KT 10SM CLR M11/M12 A3019 RMK AO2 SLP234 T11061122 11083 21106 51005
Loading
Personal Weather Stations






























Interactive Weather Map New forecast layout! Learn more

10-Day Weather Forecast

Advertisements
Track Severe Weather on mobile